createdAt,value
2022-08-05T00:01:21.030Z,0.00
2022-08-05T00:11:23.859Z,0.00
2022-08-05T00:21:31.178Z,0.00
2022-08-05T00:32:10.247Z,0.00
2022-08-05T00:41:55.953Z,0.00
2022-08-05T00:52:03.124Z,0.00
2022-08-05T01:02:09.031Z,0.00
2022-08-05T01:12:18.903Z,0.00
2022-08-05T01:22:28.116Z,0.00
2022-08-05T01:34:08.478Z,0.00
2022-08-05T01:44:15.335Z,0.00
2022-08-05T01:54:24.644Z,0.00
2022-08-05T02:04:32.790Z,0.00
2022-08-05T02:14:39.880Z,0.00
2022-08-05T02:24:51.302Z,0.00
2022-08-05T02:34:58.596Z,0.00
2022-08-05T02:45:08.626Z,0.00
2022-08-05T02:55:17.592Z,0.00
2022-08-05T03:06:53.575Z,0.00
2022-08-05T03:15:39.865Z,4.00
2022-08-05T03:26:04.432Z,8.00
2022-08-05T03:35:58.688Z,32.00
2022-08-05T03:46:04.616Z,76.00
2022-08-05T03:56:17.997Z,168.00
2022-08-05T04:06:23.657Z,304.00
2022-08-05T04:16:32.413Z,544.00
2022-08-05T04:26:38.927Z,708.00
2022-08-05T04:36:50.083Z,984.00
2022-08-05T04:46:56.492Z,1412.00
2022-08-05T04:57:02.997Z,1732.00
2022-08-05T05:07:09.709Z,2172.00
2022-08-05T05:17:19.899Z,2456.00
2022-08-05T05:27:44.676Z,1676.00
2022-08-05T05:38:00.039Z,1824.00
2022-08-05T05:48:06.680Z,1760.00
2022-08-05T05:58:01.979Z,1380.00
2022-08-05T06:08:13.260Z,2352.00
2022-08-05T06:18:20.706Z,2376.00
2022-08-05T06:28:31.909Z,2552.00
2022-08-05T06:38:40.386Z,2412.00
2022-08-05T06:48:55.932Z,3456.00
2022-08-05T06:59:09.372Z,4084.00
2022-08-05T07:09:15.931Z,4680.00
2022-08-05T07:20:10.537Z,4528.00
2022-08-05T07:30:24.008Z,3588.00
2022-08-05T07:40:04.556Z,5392.00
2022-08-05T07:49:56.554Z,7572.00
2022-08-05T08:00:05.452Z,4848.00
2022-08-05T08:10:16.848Z,5440.00
2022-08-05T08:20:59.740Z,6100.00
2022-08-05T08:30:47.798Z,8492.00
2022-08-05T08:40:51.675Z,8996.00
2022-08-05T08:51:22.033Z,9828.00
2022-08-05T09:01:15.561Z,8216.00
2022-08-05T09:11:50.706Z,11868.00
2022-08-05T09:22:23.170Z,11924.00
2022-08-05T09:32:40.220Z,10668.00
2022-08-05T09:41:56.238Z,12552.00
2022-08-05T09:52:03.212Z,10112.00
2022-08-05T10:02:10.172Z,9352.00
2022-08-05T10:12:30.238Z,16012.00
2022-08-05T10:22:35.130Z,50144.00
2022-08-05T10:32:51.473Z,32288.00
2022-08-05T10:42:54.429Z,51872.00
2022-08-05T10:53:01.139Z,52320.00
2022-08-05T11:03:24.317Z,56544.00
2022-08-05T11:13:20.160Z,60512.00
2022-08-05T11:23:33.378Z,60448.00
2022-08-05T11:33:46.592Z,67872.00
2022-08-05T11:44:05.579Z,73024.00
2022-08-05T11:54:02.345Z,61408.00
2022-08-05T12:04:10.441Z,8268.00
2022-08-05T12:14:20.107Z,12724.00
2022-08-05T12:24:30.632Z,10420.00
2022-08-05T12:34:37.182Z,14532.00
2022-08-05T12:44:43.798Z,11060.00
2022-08-05T12:54:50.011Z,12112.00
2022-08-05T13:04:56.073Z,16960.00
2022-08-05T13:15:06.236Z,13900.00
2022-08-05T13:25:19.242Z,16804.00
2022-08-05T13:35:43.365Z,16012.00
2022-08-05T13:45:38.637Z,17816.00
2022-08-05T13:55:50.137Z,13292.00
2022-08-05T14:06:25.065Z,15740.00
2022-08-05T14:16:16.783Z,11524.00
2022-08-05T14:26:38.382Z,10332.00
2022-08-05T14:36:34.045Z,10256.00
2022-08-05T14:46:40.177Z,8496.00
2022-08-05T14:56:46.852Z,8152.00
2022-08-05T15:06:53.327Z,7900.00
2022-08-05T15:16:59.820Z,7952.00
2022-08-05T15:27:09.092Z,8056.00
2022-08-05T15:37:19.351Z,6440.00
2022-08-05T15:47:26.729Z,4712.00
2022-08-05T15:57:33.270Z,4952.00
2022-08-05T16:07:46.443Z,6080.00
2022-08-05T16:17:58.070Z,4780.00
2022-08-05T16:28:05.712Z,4436.00
2022-08-05T16:38:23.747Z,4212.00
2022-08-05T16:48:33.540Z,2276.00
2022-08-05T16:58:36.825Z,980.00
2022-08-05T17:08:53.111Z,1216.00
2022-08-05T17:18:54.950Z,824.00
2022-08-05T17:29:01.043Z,1516.00
2022-08-05T17:40:31.644Z,184.00
2022-08-05T17:50:37.291Z,84.00
2022-08-05T18:00:45.396Z,60.00
2022-08-05T18:10:54.116Z,56.00
2022-08-05T18:21:00.640Z,64.00
2022-08-05T18:31:08.896Z,40.00
2022-08-05T18:41:53.710Z,32.00
2022-08-05T18:52:05.024Z,20.00
2022-08-05T19:01:48.175Z,24.00
2022-08-05T19:12:00.628Z,4.00
2022-08-05T19:22:03.512Z,0.00
2022-08-05T19:32:11.385Z,0.00
2022-08-05T19:42:18.175Z,0.00
2022-08-05T19:52:31.154Z,0.00
2022-08-05T20:02:35.829Z,0.00
2022-08-05T20:12:47.808Z,0.00
2022-08-05T20:22:53.332Z,0.00
2022-08-05T20:32:59.343Z,0.00
2022-08-05T20:43:05.928Z,0.00
2022-08-05T20:53:15.838Z,0.00
2022-08-05T21:03:25.423Z,0.00
2022-08-05T21:13:47.869Z,0.00
2022-08-05T21:23:44.474Z,0.00
2022-08-05T21:33:51.095Z,0.00
2022-08-05T21:44:01.815Z,0.00
2022-08-05T21:54:09.528Z,0.00
2022-08-05T22:04:15.647Z,0.00
2022-08-05T22:14:35.755Z,0.00
2022-08-05T22:24:40.076Z,0.00
2022-08-05T22:34:46.116Z,0.00
2022-08-05T22:44:56.971Z,0.00
2022-08-05T22:55:04.170Z,0.00
2022-08-05T23:05:12.035Z,0.00
2022-08-05T23:15:18.215Z,0.00
2022-08-05T23:25:51.905Z,0.00
2022-08-05T23:35:36.502Z,0.00
2022-08-05T23:45:43.959Z,0.00
2022-08-05T23:55:49.461Z,0.00
